sensor_id;sensor_type;location;lat;lon;timestamp;temperature;humidity
29663;DHT22;16578;53.266;7.920;2023-08-30T00:01:48;19.10;76.70
29663;DHT22;16578;53.266;7.920;2023-08-30T00:04:14;19.10;76.70
29663;DHT22;16578;53.266;7.920;2023-08-30T00:06:39;19.10;76.60
29663;DHT22;16578;53.266;7.920;2023-08-30T00:09:05;19.10;76.60
29663;DHT22;16578;53.266;7.920;2023-08-30T00:11:30;19.10;76.50
29663;DHT22;16578;53.266;7.920;2023-08-30T00:14:04;19.10;76.50
29663;DHT22;16578;53.266;7.920;2023-08-30T00:16:32;19.10;76.50
29663;DHT22;16578;53.266;7.920;2023-08-30T00:18:58;19.10;76.50
29663;DHT22;16578;53.266;7.920;2023-08-30T00:21:24;19.10;76.50
29663;DHT22;16578;53.266;7.920;2023-08-30T00:23:51;19.10;76.50
29663;DHT22;16578;53.266;7.920;2023-08-30T00:26:16;19.10;76.50
29663;DHT22;16578;53.266;7.920;2023-08-30T00:28:42;19.10;76.50
29663;DHT22;16578;53.266;7.920;2023-08-30T00:31:08;19.10;76.50
29663;DHT22;16578;53.266;7.920;2023-08-30T00:33:33;19.10;76.50
29663;DHT22;16578;53.266;7.920;2023-08-30T00:36:00;19.10;76.60
29663;DHT22;16578;53.266;7.920;2023-08-30T00:38:29;19.10;76.50
29663;DHT22;16578;53.266;7.920;2023-08-30T00:40:55;19.10;76.60
29663;DHT22;16578;53.266;7.920;2023-08-30T00:43:20;19.10;76.60
29663;DHT22;16578;53.266;7.920;2023-08-30T00:45:47;19.10;76.50
29663;DHT22;16578;53.266;7.920;2023-08-30T00:48:14;19.10;76.50
29663;DHT22;16578;53.266;7.920;2023-08-30T00:50:41;19.10;76.50
29663;DHT22;16578;53.266;7.920;2023-08-30T00:53:07;19.00;76.50
29663;DHT22;16578;53.266;7.920;2023-08-30T00:55:35;19.10;76.60
29663;DHT22;16578;53.266;7.920;2023-08-30T00:58:01;19.10;77.40
29663;DHT22;16578;53.266;7.920;2023-08-30T01:00:29;19.10;76.50
29663;DHT22;16578;53.266;7.920;2023-08-30T01:02:56;19.10;76.50
29663;DHT22;16578;53.266;7.920;2023-08-30T01:05:21;19.10;76.30
29663;DHT22;16578;53.266;7.920;2023-08-30T01:07:48;19.10;76.20
29663;DHT22;16578;53.266;7.920;2023-08-30T01:10:14;19.00;76.20
29663;DHT22;16578;53.266;7.920;2023-08-30T01:12:52;19.00;76.20
29663;DHT22;16578;53.266;7.920;2023-08-30T01:15:19;19.00;76.10
29663;DHT22;16578;53.266;7.920;2023-08-30T01:17:48;18.90;76.00
29663;DHT22;16578;53.266;7.920;2023-08-30T01:20:15;19.00;76.00
29663;DHT22;16578;53.266;7.920;2023-08-30T01:23:07;18.90;76.00
29663;DHT22;16578;53.266;7.920;2023-08-30T01:28:23;18.90;76.10
29663;DHT22;16578;53.266;7.920;2023-08-30T01:30:49;18.90;76.10
29663;DHT22;16578;53.266;7.920;2023-08-30T01:33:16;18.80;76.30
29663;DHT22;16578;53.266;7.920;2023-08-30T01:35:44;18.80;76.10
29663;DHT22;16578;53.266;7.920;2023-08-30T01:38:11;18.80;75.90
29663;DHT22;16578;53.266;7.920;2023-08-30T01:40:39;18.80;76.00
29663;DHT22;16578;53.266;7.920;2023-08-30T01:43:07;18.80;76.10
29663;DHT22;16578;53.266;7.920;2023-08-30T01:45:40;18.70;76.00
29663;DHT22;16578;53.266;7.920;2023-08-30T01:48:09;18.70;75.90
29663;DHT22;16578;53.266;7.920;2023-08-30T01:50:35;18.70;76.00
29663;DHT22;16578;53.266;7.920;2023-08-30T01:53:02;18.70;76.00
29663;DHT22;16578;53.266;7.920;2023-08-30T01:55:29;18.60;75.90
29663;DHT22;16578;53.266;7.920;2023-08-30T01:57:55;18.60;76.00
29663;DHT22;16578;53.266;7.920;2023-08-30T02:00:21;18.60;76.00
29663;DHT22;16578;53.266;7.920;2023-08-30T02:02:47;18.60;76.10
29663;DHT22;16578;53.266;7.920;2023-08-30T02:05:13;18.60;76.70
29663;DHT22;16578;53.266;7.920;2023-08-30T02:07:58;18.60;76.30
29663;DHT22;16578;53.266;7.920;2023-08-30T02:10:31;18.60;76.40
29663;DHT22;16578;53.266;7.920;2023-08-30T02:12:57;18.60;77.30
29663;DHT22;16578;53.266;7.920;2023-08-30T02:15:25;18.50;76.40
29663;DHT22;16578;53.266;7.920;2023-08-30T02:17:52;18.50;76.50
29663;DHT22;16578;53.266;7.920;2023-08-30T02:20:18;18.50;76.60
29663;DHT22;16578;53.266;7.920;2023-08-30T02:22:44;18.50;76.60
29663;DHT22;16578;53.266;7.920;2023-08-30T02:25:09;18.50;76.60
29663;DHT22;16578;53.266;7.920;2023-08-30T02:27:35;18.50;76.60
29663;DHT22;16578;53.266;7.920;2023-08-30T02:30:01;18.50;76.70
29663;DHT22;16578;53.266;7.920;2023-08-30T02:32:28;18.50;76.60
29663;DHT22;16578;53.266;7.920;2023-08-30T02:34:53;18.50;76.70
29663;DHT22;16578;53.266;7.920;2023-08-30T02:37:20;18.50;76.80
29663;DHT22;16578;53.266;7.920;2023-08-30T02:39:45;18.50;76.80
29663;DHT22;16578;53.266;7.920;2023-08-30T02:42:11;18.40;76.70
29663;DHT22;16578;53.266;7.920;2023-08-30T02:44:36;18.50;76.80
29663;DHT22;16578;53.266;7.920;2023-08-30T02:47:02;18.50;76.80
29663;DHT22;16578;53.266;7.920;2023-08-30T02:49:27;18.50;76.90
29663;DHT22;16578;53.266;7.920;2023-08-30T02:51:53;18.50;76.90
29663;DHT22;16578;53.266;7.920;2023-08-30T02:54:19;18.40;76.90
29663;DHT22;16578;53.266;7.920;2023-08-30T02:56:44;18.40;76.90
29663;DHT22;16578;53.266;7.920;2023-08-30T02:59:11;18.40;76.90
29663;DHT22;16578;53.266;7.920;2023-08-30T03:01:37;18.40;76.90
29663;DHT22;16578;53.266;7.920;2023-08-30T03:04:05;18.40;77.00
29663;DHT22;16578;53.266;7.920;2023-08-30T03:06:32;18.40;77.00
29663;DHT22;16578;53.266;7.920;2023-08-30T03:08:58;18.40;77.90
29663;DHT22;16578;53.266;7.920;2023-08-30T03:11:23;18.40;77.00
29663;DHT22;16578;53.266;7.920;2023-08-30T03:13:49;18.40;77.10
29663;DHT22;16578;53.266;7.920;2023-08-30T03:16:16;18.40;77.10
29663;DHT22;16578;53.266;7.920;2023-08-30T03:18:42;18.40;77.10
29663;DHT22;16578;53.266;7.920;2023-08-30T03:21:09;18.40;77.20
29663;DHT22;16578;53.266;7.920;2023-08-30T03:23:35;18.30;77.20
29663;DHT22;16578;53.266;7.920;2023-08-30T03:26:11;18.30;77.20
29663;DHT22;16578;53.266;7.920;2023-08-30T03:28:37;18.40;77.30
29663;DHT22;16578;53.266;7.920;2023-08-30T03:31:17;18.30;77.30
29663;DHT22;16578;53.266;7.920;2023-08-30T03:33:44;18.30;77.40
29663;DHT22;16578;53.266;7.920;2023-08-30T03:36:11;18.30;77.50
29663;DHT22;16578;53.266;7.920;2023-08-30T03:38:36;18.30;77.60
29663;DHT22;16578;53.266;7.920;2023-08-30T03:41:03;18.30;77.60
29663;DHT22;16578;53.266;7.920;2023-08-30T03:43:29;18.30;77.70
29663;DHT22;16578;53.266;7.920;2023-08-30T03:45:55;18.30;77.60
29663;DHT22;16578;53.266;7.920;2023-08-30T03:48:21;18.30;77.60
29663;DHT22;16578;53.266;7.920;2023-08-30T03:50:46;18.30;77.60
29663;DHT22;16578;53.266;7.920;2023-08-30T03:53:12;18.40;77.70
29663;DHT22;16578;53.266;7.920;2023-08-30T03:55:37;18.30;77.60
29663;DHT22;16578;53.266;7.920;2023-08-30T03:58:03;18.40;77.70
29663;DHT22;16578;53.266;7.920;2023-08-30T04:00:28;18.30;77.60
29663;DHT22;16578;53.266;7.920;2023-08-30T04:02:54;18.40;77.50
29663;DHT22;16578;53.266;7.920;2023-08-30T04:05:19;18.30;77.40
29663;DHT22;16578;53.266;7.920;2023-08-30T04:07:45;18.40;77.40
29663;DHT22;16578;53.266;7.920;2023-08-30T04:10:11;18.30;77.30
29663;DHT22;16578;53.266;7.920;2023-08-30T04:12:36;18.30;77.30
29663;DHT22;16578;53.266;7.920;2023-08-30T04:15:02;18.30;77.20
29663;DHT22;16578;53.266;7.920;2023-08-30T04:17:27;18.30;77.20
29663;DHT22;16578;53.266;7.920;2023-08-30T04:19:53;18.30;77.20
29663;DHT22;16578;53.266;7.920;2023-08-30T04:22:19;18.30;77.30
29663;DHT22;16578;53.266;7.920;2023-08-30T04:24:46;18.30;77.40
29663;DHT22;16578;53.266;7.920;2023-08-30T04:27:11;18.30;77.40
29663;DHT22;16578;53.266;7.920;2023-08-30T04:29:37;18.20;77.40
29663;DHT22;16578;53.266;7.920;2023-08-30T04:32:02;18.20;77.50
29663;DHT22;16578;53.266;7.920;2023-08-30T04:34:28;18.20;77.50
29663;DHT22;16578;53.266;7.920;2023-08-30T04:36:55;18.20;77.50
29663;DHT22;16578;53.266;7.920;2023-08-30T04:39:20;18.20;77.40
29663;DHT22;16578;53.266;7.920;2023-08-30T04:41:46;18.20;77.40
29663;DHT22;16578;53.266;7.920;2023-08-30T04:44:11;18.20;77.50
29663;DHT22;16578;53.266;7.920;2023-08-30T04:46:37;18.10;77.40
29663;DHT22;16578;53.266;7.920;2023-08-30T04:49:02;18.20;77.40
29663;DHT22;16578;53.266;7.920;2023-08-30T04:51:28;18.10;77.40
29663;DHT22;16578;53.266;7.920;2023-08-30T04:53:54;18.10;77.30
29663;DHT22;16578;53.266;7.920;2023-08-30T04:56:20;18.10;77.30
29663;DHT22;16578;53.266;7.920;2023-08-30T04:58:45;18.00;77.30
29663;DHT22;16578;53.266;7.920;2023-08-30T05:01:11;18.00;77.30
29663;DHT22;16578;53.266;7.920;2023-08-30T05:03:39;18.10;77.50
29663;DHT22;16578;53.266;7.920;2023-08-30T05:06:04;18.00;77.30
29663;DHT22;16578;53.266;7.920;2023-08-30T05:08:30;18.00;77.40
29663;DHT22;16578;53.266;7.920;2023-08-30T05:10:56;18.00;77.30
29663;DHT22;16578;53.266;7.920;2023-08-30T05:13:21;18.00;77.30
29663;DHT22;16578;53.266;7.920;2023-08-30T05:15:47;18.00;77.30
29663;DHT22;16578;53.266;7.920;2023-08-30T05:18:13;17.90;77.40
29663;DHT22;16578;53.266;7.920;2023-08-30T05:20:38;17.90;77.40
29663;DHT22;16578;53.266;7.920;2023-08-30T05:23:04;17.90;77.40
29663;DHT22;16578;53.266;7.920;2023-08-30T05:25:29;17.90;77.40
29663;DHT22;16578;53.266;7.920;2023-08-30T05:27:55;17.90;77.40
29663;DHT22;16578;53.266;7.920;2023-08-30T05:30:20;17.90;77.50
29663;DHT22;16578;53.266;7.920;2023-08-30T05:32:46;17.90;77.60
29663;DHT22;16578;53.266;7.920;2023-08-30T05:35:11;17.80;77.50
29663;DHT22;16578;53.266;7.920;2023-08-30T05:37:37;17.80;77.50
29663;DHT22;16578;53.266;7.920;2023-08-30T05:40:03;17.80;77.50
29663;DHT22;16578;53.266;7.920;2023-08-30T05:42:29;17.80;77.50
29663;DHT22;16578;53.266;7.920;2023-08-30T05:44:55;17.70;77.40
29663;DHT22;16578;53.266;7.920;2023-08-30T05:47:21;17.70;77.50
29663;DHT22;16578;53.266;7.920;2023-08-30T05:49:46;17.70;77.60
29663;DHT22;16578;53.266;7.920;2023-08-30T05:52:12;17.70;77.70
29663;DHT22;16578;53.266;7.920;2023-08-30T05:54:38;17.60;77.70
29663;DHT22;16578;53.266;7.920;2023-08-30T05:57:04;17.60;77.80
29663;DHT22;16578;53.266;7.920;2023-08-30T05:59:29;17.60;77.80
29663;DHT22;16578;53.266;7.920;2023-08-30T06:01:55;17.60;77.90
29663;DHT22;16578;53.266;7.920;2023-08-30T06:04:20;17.60;78.00
29663;DHT22;16578;53.266;7.920;2023-08-30T06:06:46;17.50;77.90
29663;DHT22;16578;53.266;7.920;2023-08-30T06:09:11;17.60;78.00
29663;DHT22;16578;53.266;7.920;2023-08-30T06:11:40;17.60;78.00
29663;DHT22;16578;53.266;7.920;2023-08-30T06:14:05;17.60;78.10
29663;DHT22;16578;53.266;7.920;2023-08-30T06:16:31;17.60;78.20
29663;DHT22;16578;53.266;7.920;2023-08-30T06:18:57;17.60;78.20
29663;DHT22;16578;53.266;7.920;2023-08-30T06:21:24;17.60;78.20
29663;DHT22;16578;53.266;7.920;2023-08-30T06:23:50;17.60;78.30
29663;DHT22;16578;53.266;7.920;2023-08-30T06:26:16;17.60;78.30
29663;DHT22;16578;53.266;7.920;2023-08-30T06:28:41;17.60;78.30
29663;DHT22;16578;53.266;7.920;2023-08-30T06:31:08;17.60;78.30
29663;DHT22;16578;53.266;7.920;2023-08-30T06:33:33;17.60;78.20
29663;DHT22;16578;53.266;7.920;2023-08-30T06:35:59;17.60;78.20
29663;DHT22;16578;53.266;7.920;2023-08-30T06:38:25;17.70;78.40
29663;DHT22;16578;53.266;7.920;2023-08-30T06:40:50;17.60;78.40
29663;DHT22;16578;53.266;7.920;2023-08-30T06:43:16;17.70;78.50
29663;DHT22;16578;53.266;7.920;2023-08-30T06:45:41;17.70;78.50
29663;DHT22;16578;53.266;7.920;2023-08-30T06:48:08;17.70;78.50
29663;DHT22;16578;53.266;7.920;2023-08-30T06:50:34;17.70;78.60
29663;DHT22;16578;53.266;7.920;2023-08-30T06:53:00;17.80;78.70
29663;DHT22;16578;53.266;7.920;2023-08-30T06:55:26;17.80;78.70
29663;DHT22;16578;53.266;7.920;2023-08-30T06:57:51;17.80;78.60
29663;DHT22;16578;53.266;7.920;2023-08-30T07:00:17;17.80;78.50
29663;DHT22;16578;53.266;7.920;2023-08-30T07:02:43;17.90;78.60
29663;DHT22;16578;53.266;7.920;2023-08-30T07:05:14;17.90;78.60
29663;DHT22;16578;53.266;7.920;2023-08-30T07:07:40;17.90;78.60
29663;DHT22;16578;53.266;7.920;2023-08-30T07:10:06;17.90;78.90
29663;DHT22;16578;53.266;7.920;2023-08-30T07:12:31;18.00;78.70
29663;DHT22;16578;53.266;7.920;2023-08-30T07:14:57;18.00;78.50
29663;DHT22;16578;53.266;7.920;2023-08-30T07:17:22;18.00;78.50
29663;DHT22;16578;53.266;7.920;2023-08-30T07:19:49;18.10;78.40
29663;DHT22;16578;53.266;7.920;2023-08-30T07:22:14;18.20;78.30
29663;DHT22;16578;53.266;7.920;2023-08-30T07:24:42;18.20;78.10
29663;DHT22;16578;53.266;7.920;2023-08-30T07:27:08;18.20;78.10
29663;DHT22;16578;53.266;7.920;2023-08-30T07:29:34;18.20;78.10
29663;DHT22;16578;53.266;7.920;2023-08-30T07:31:59;18.30;78.10
29663;DHT22;16578;53.266;7.920;2023-08-30T07:34:25;18.30;78.00
29663;DHT22;16578;53.266;7.920;2023-08-30T07:36:54;18.30;77.90
29663;DHT22;16578;53.266;7.920;2023-08-30T07:39:21;18.40;78.00
29663;DHT22;16578;53.266;7.920;2023-08-30T07:41:47;18.40;78.10
29663;DHT22;16578;53.266;7.920;2023-08-30T07:44:12;18.40;78.20
29663;DHT22;16578;53.266;7.920;2023-08-30T07:46:38;18.50;78.40
29663;DHT22;16578;53.266;7.920;2023-08-30T07:49:03;18.50;78.10
29663;DHT22;16578;53.266;7.920;2023-08-30T07:51:29;18.60;78.00
29663;DHT22;16578;53.266;7.920;2023-08-30T07:53:54;18.60;77.90
29663;DHT22;16578;53.266;7.920;2023-08-30T07:56:20;18.70;77.80
29663;DHT22;16578;53.266;7.920;2023-08-30T07:58:45;18.70;77.60
29663;DHT22;16578;53.266;7.920;2023-08-30T08:01:11;18.80;77.50
29663;DHT22;16578;53.266;7.920;2023-08-30T08:03:36;18.80;77.30
29663;DHT22;16578;53.266;7.920;2023-08-30T08:06:03;18.80;76.90
29663;DHT22;16578;53.266;7.920;2023-08-30T08:08:28;18.80;76.60
29663;DHT22;16578;53.266;7.920;2023-08-30T08:10:54;18.80;76.50
29663;DHT22;16578;53.266;7.920;2023-08-30T08:13:20;18.80;76.50
29663;DHT22;16578;53.266;7.920;2023-08-30T08:15:45;18.80;76.60
29663;DHT22;16578;53.266;7.920;2023-08-30T08:18:11;18.80;76.50
29663;DHT22;16578;53.266;7.920;2023-08-30T08:20:36;18.90;76.50
29663;DHT22;16578;53.266;7.920;2023-08-30T08:23:03;18.90;76.50
29663;DHT22;16578;53.266;7.920;2023-08-30T08:25:29;18.90;76.50
29663;DHT22;16578;53.266;7.920;2023-08-30T08:27:54;18.90;76.30
29663;DHT22;16578;53.266;7.920;2023-08-30T08:30:20;18.90;76.30
29663;DHT22;16578;53.266;7.920;2023-08-30T08:32:46;18.90;76.20
29663;DHT22;16578;53.266;7.920;2023-08-30T08:35:15;18.90;76.00
29663;DHT22;16578;53.266;7.920;2023-08-30T08:37:41;18.90;75.90
29663;DHT22;16578;53.266;7.920;2023-08-30T08:40:07;18.90;76.10
29663;DHT22;16578;53.266;7.920;2023-08-30T08:42:36;18.90;76.10
29663;DHT22;16578;53.266;7.920;2023-08-30T08:45:03;18.90;75.90
29663;DHT22;16578;53.266;7.920;2023-08-30T08:47:31;18.90;75.70
29663;DHT22;16578;53.266;7.920;2023-08-30T08:49:57;19.00;76.10
29663;DHT22;16578;53.266;7.920;2023-08-30T08:52:26;19.00;76.50
29663;DHT22;16578;53.266;7.920;2023-08-30T08:54:52;19.00;76.60
29663;DHT22;16578;53.266;7.920;2023-08-30T08:57:19;19.10;76.90
29663;DHT22;16578;53.266;7.920;2023-08-30T08:59:46;19.10;77.00
29663;DHT22;16578;53.266;7.920;2023-08-30T09:02:14;19.20;77.10
29663;DHT22;16578;53.266;7.920;2023-08-30T09:04:40;19.40;77.20
29663;DHT22;16578;53.266;7.920;2023-08-30T09:07:06;19.40;77.10
29663;DHT22;16578;53.266;7.920;2023-08-30T09:09:33;19.60;77.00
29663;DHT22;16578;53.266;7.920;2023-08-30T09:11:59;19.70;76.60
29663;DHT22;16578;53.266;7.920;2023-08-30T09:14:24;19.70;76.20
29663;DHT22;16578;53.266;7.920;2023-08-30T09:16:57;19.80;76.00
29663;DHT22;16578;53.266;7.920;2023-08-30T09:19:22;19.90;76.00
29663;DHT22;16578;53.266;7.920;2023-08-30T09:21:55;20.00;76.10
29663;DHT22;16578;53.266;7.920;2023-08-30T09:24:21;20.10;75.70
29663;DHT22;16578;53.266;7.920;2023-08-30T09:26:52;20.20;75.70
29663;DHT22;16578;53.266;7.920;2023-08-30T09:29:19;20.30;75.60
29663;DHT22;16578;53.266;7.920;2023-08-30T09:31:45;20.30;75.20
29663;DHT22;16578;53.266;7.920;2023-08-30T09:34:12;20.40;74.70
29663;DHT22;16578;53.266;7.920;2023-08-30T09:36:39;20.50;74.30
29663;DHT22;16578;53.266;7.920;2023-08-30T09:39:12;20.60;73.50
29663;DHT22;16578;53.266;7.920;2023-08-30T09:41:45;20.60;73.40
29663;DHT22;16578;53.266;7.920;2023-08-30T09:44:16;20.70;73.30
29663;DHT22;16578;53.266;7.920;2023-08-30T09:46:43;20.80;73.10
29663;DHT22;16578;53.266;7.920;2023-08-30T09:49:09;20.90;72.90
29663;DHT22;16578;53.266;7.920;2023-08-30T09:51:35;20.90;72.90
29663;DHT22;16578;53.266;7.920;2023-08-30T09:54:04;21.00;73.10
29663;DHT22;16578;53.266;7.920;2023-08-30T09:56:32;21.00;72.90
29663;DHT22;16578;53.266;7.920;2023-08-30T09:59:02;21.10;72.70
29663;DHT22;16578;53.266;7.920;2023-08-30T10:01:28;21.20;72.30
29663;DHT22;16578;53.266;7.920;2023-08-30T10:03:55;21.20;71.80
29663;DHT22;16578;53.266;7.920;2023-08-30T10:06:23;21.20;71.40
29663;DHT22;16578;53.266;7.920;2023-08-30T10:08:51;21.20;71.30
29663;DHT22;16578;53.266;7.920;2023-08-30T10:11:18;21.30;71.40
29663;DHT22;16578;53.266;7.920;2023-08-30T10:13:48;21.30;71.30
29663;DHT22;16578;53.266;7.920;2023-08-30T10:16:19;21.30;71.10
29663;DHT22;16578;53.266;7.920;2023-08-30T10:19:03;21.30;71.10
29663;DHT22;16578;53.266;7.920;2023-08-30T10:21:31;21.30;70.90
29663;DHT22;16578;53.266;7.920;2023-08-30T10:23:57;21.30;71.00
29663;DHT22;16578;53.266;7.920;2023-08-30T10:26:26;21.40;70.80
29663;DHT22;16578;53.266;7.920;2023-08-30T10:28:54;21.40;70.60
29663;DHT22;16578;53.266;7.920;2023-08-30T10:31:20;21.40;70.30
29663;DHT22;16578;53.266;7.920;2023-08-30T10:33:50;21.40;70.40
29663;DHT22;16578;53.266;7.920;2023-08-30T10:36:26;21.40;70.60
29663;DHT22;16578;53.266;7.920;2023-08-30T10:38:55;21.50;70.60
29663;DHT22;16578;53.266;7.920;2023-08-30T10:41:23;21.50;70.00
29663;DHT22;16578;53.266;7.920;2023-08-30T10:43:54;21.50;69.80
29663;DHT22;16578;53.266;7.920;2023-08-30T10:46:33;21.50;69.70
29663;DHT22;16578;53.266;7.920;2023-08-30T10:49:09;21.50;69.70
29663;DHT22;16578;53.266;7.920;2023-08-30T10:51:38;21.50;69.30
29663;DHT22;16578;53.266;7.920;2023-08-30T10:54:12;21.40;69.60
29663;DHT22;16578;53.266;7.920;2023-08-30T10:56:48;21.50;69.50
29663;DHT22;16578;53.266;7.920;2023-08-30T10:59:20;21.40;69.20
29663;DHT22;16578;53.266;7.920;2023-08-30T11:01:46;21.40;69.50
29663;DHT22;16578;53.266;7.920;2023-08-30T11:04:14;21.30;68.80
29663;DHT22;16578;53.266;7.920;2023-08-30T11:06:44;21.30;68.80
29663;DHT22;16578;53.266;7.920;2023-08-30T11:09:12;21.30;69.00
29663;DHT22;16578;53.266;7.920;2023-08-30T11:11:38;21.30;69.00
29663;DHT22;16578;53.266;7.920;2023-08-30T11:14:07;21.20;69.00
29663;DHT22;16578;53.266;7.920;2023-08-30T11:16:34;21.30;69.00
29663;DHT22;16578;53.266;7.920;2023-08-30T11:19:01;21.20;68.70
29663;DHT22;16578;53.266;7.920;2023-08-30T11:21:29;21.20;68.70
29663;DHT22;16578;53.266;7.920;2023-08-30T11:23:55;21.20;68.90
29663;DHT22;16578;53.266;7.920;2023-08-30T11:26:20;21.10;69.20
29663;DHT22;16578;53.266;7.920;2023-08-30T11:28:46;21.10;69.40
29663;DHT22;16578;53.266;7.920;2023-08-30T11:31:24;21.10;69.40
29663;DHT22;16578;53.266;7.920;2023-08-30T11:33:54;21.10;69.20
29663;DHT22;16578;53.266;7.920;2023-08-30T11:36:23;21.10;69.60
29663;DHT22;16578;53.266;7.920;2023-08-30T11:38:58;21.00;69.50
29663;DHT22;16578;53.266;7.920;2023-08-30T11:41:25;21.10;69.00
29663;DHT22;16578;53.266;7.920;2023-08-30T11:43:51;21.00;69.20
29663;DHT22;16578;53.266;7.920;2023-08-30T11:46:17;21.00;69.30
29663;DHT22;16578;53.266;7.920;2023-08-30T11:48:44;21.00;69.30
29663;DHT22;16578;53.266;7.920;2023-08-30T11:51:10;21.00;69.40
29663;DHT22;16578;53.266;7.920;2023-08-30T11:53:37;21.00;69.50
29663;DHT22;16578;53.266;7.920;2023-08-30T11:56:07;21.00;69.70
29663;DHT22;16578;53.266;7.920;2023-08-30T11:58:34;21.00;69.50
29663;DHT22;16578;53.266;7.920;2023-08-30T12:01:00;20.90;69.20
29663;DHT22;16578;53.266;7.920;2023-08-30T12:03:27;20.90;69.60
29663;DHT22;16578;53.266;7.920;2023-08-30T12:05:53;20.90;69.80
29663;DHT22;16578;53.266;7.920;2023-08-30T12:08:28;20.90;69.80
29663;DHT22;16578;53.266;7.920;2023-08-30T12:10:55;20.90;70.10
29663;DHT22;16578;53.266;7.920;2023-08-30T12:13:27;20.90;70.30
29663;DHT22;16578;53.266;7.920;2023-08-30T12:15:54;20.90;70.60
29663;DHT22;16578;53.266;7.920;2023-08-30T12:18:24;20.90;70.80
29663;DHT22;16578;53.266;7.920;2023-08-30T12:20:58;20.90;70.80
29663;DHT22;16578;53.266;7.920;2023-08-30T12:23:26;21.00;70.90
29663;DHT22;16578;53.266;7.920;2023-08-30T12:26:08;21.00;70.50
29663;DHT22;16578;53.266;7.920;2023-08-30T12:28:37;21.00;69.80
29663;DHT22;16578;53.266;7.920;2023-08-30T12:31:03;21.00;70.00
29663;DHT22;16578;53.266;7.920;2023-08-30T12:33:33;20.90;69.90
29663;DHT22;16578;53.266;7.920;2023-08-30T12:35:59;20.90;70.10
29663;DHT22;16578;53.266;7.920;2023-08-30T12:38:24;20.90;70.20
29663;DHT22;16578;53.266;7.920;2023-08-30T12:40:52;20.90;70.40
29663;DHT22;16578;53.266;7.920;2023-08-30T12:43:18;20.90;70.60
29663;DHT22;16578;53.266;7.920;2023-08-30T12:45:46;21.00;70.80
29663;DHT22;16578;53.266;7.920;2023-08-30T12:48:13;21.00;70.90
29663;DHT22;16578;53.266;7.920;2023-08-30T12:50:44;21.00;70.70
29663;DHT22;16578;53.266;7.920;2023-08-30T12:53:10;21.00;70.90
29663;DHT22;16578;53.266;7.920;2023-08-30T12:55:36;20.90;70.90
29663;DHT22;16578;53.266;7.920;2023-08-30T12:58:02;20.90;70.90
29663;DHT22;16578;53.266;7.920;2023-08-30T13:00:28;20.90;70.90
29663;DHT22;16578;53.266;7.920;2023-08-30T13:02:54;20.90;71.10
29663;DHT22;16578;53.266;7.920;2023-08-30T13:05:20;20.90;71.20
29663;DHT22;16578;53.266;7.920;2023-08-30T13:07:46;20.80;71.20
29663;DHT22;16578;53.266;7.920;2023-08-30T13:10:12;20.80;71.40
29663;DHT22;16578;53.266;7.920;2023-08-30T13:12:37;20.80;71.40
29663;DHT22;16578;53.266;7.920;2023-08-30T13:15:04;20.80;71.40
29663;DHT22;16578;53.266;7.920;2023-08-30T13:17:30;20.80;71.50
29663;DHT22;16578;53.266;7.920;2023-08-30T13:19:55;20.80;71.60
29663;DHT22;16578;53.266;7.920;2023-08-30T13:22:23;20.80;71.80
29663;DHT22;16578;53.266;7.920;2023-08-30T13:24:49;20.80;71.60
29663;DHT22;16578;53.266;7.920;2023-08-30T13:27:14;20.80;71.50
29663;DHT22;16578;53.266;7.920;2023-08-30T13:29:40;20.80;71.80
29663;DHT22;16578;53.266;7.920;2023-08-30T13:32:06;20.70;72.00
29663;DHT22;16578;53.266;7.920;2023-08-30T13:34:31;20.80;72.20
29663;DHT22;16578;53.266;7.920;2023-08-30T13:36:57;20.70;72.20
29663;DHT22;16578;53.266;7.920;2023-08-30T13:39:22;20.70;72.20
29663;DHT22;16578;53.266;7.920;2023-08-30T13:41:48;20.70;72.20
29663;DHT22;16578;53.266;7.920;2023-08-30T13:44:14;20.70;72.30
29663;DHT22;16578;53.266;7.920;2023-08-30T13:46:40;20.60;72.40
29663;DHT22;16578;53.266;7.920;2023-08-30T13:49:05;20.60;72.60
29663;DHT22;16578;53.266;7.920;2023-08-30T13:51:31;20.60;72.70
29663;DHT22;16578;53.266;7.920;2023-08-30T13:53:57;20.50;72.70
29663;DHT22;16578;53.266;7.920;2023-08-30T13:56:23;20.50;72.70
29663;DHT22;16578;53.266;7.920;2023-08-30T13:58:49;20.50;72.90
29663;DHT22;16578;53.266;7.920;2023-08-30T14:01:15;20.40;73.10
29663;DHT22;16578;53.266;7.920;2023-08-30T14:03:42;20.40;73.30
29663;DHT22;16578;53.266;7.920;2023-08-30T14:06:08;20.30;73.50
29663;DHT22;16578;53.266;7.920;2023-08-30T14:08:34;20.30;73.70
29663;DHT22;16578;53.266;7.920;2023-08-30T14:10:59;20.20;73.80
29663;DHT22;16578;53.266;7.920;2023-08-30T14:13:25;20.20;74.10
29663;DHT22;16578;53.266;7.920;2023-08-30T14:15:53;20.10;74.50
29663;DHT22;16578;53.266;7.920;2023-08-30T14:18:19;20.10;74.90
29663;DHT22;16578;53.266;7.920;2023-08-30T14:20:44;20.00;75.20
29663;DHT22;16578;53.266;7.920;2023-08-30T14:23:10;20.10;75.50
29663;DHT22;16578;53.266;7.920;2023-08-30T14:25:36;20.00;75.60
29663;DHT22;16578;53.266;7.920;2023-08-30T14:28:02;20.00;75.80
29663;DHT22;16578;53.266;7.920;2023-08-30T14:30:29;20.10;76.50
29663;DHT22;16578;53.266;7.920;2023-08-30T14:32:55;20.00;76.20
29663;DHT22;16578;53.266;7.920;2023-08-30T14:35:20;20.00;76.20
29663;DHT22;16578;53.266;7.920;2023-08-30T14:37:46;20.00;76.20
29663;DHT22;16578;53.266;7.920;2023-08-30T14:40:13;20.00;76.30
29663;DHT22;16578;53.266;7.920;2023-08-30T14:43:04;20.00;76.50
29663;DHT22;16578;53.266;7.920;2023-08-30T14:45:33;20.00;77.00
29663;DHT22;16578;53.266;7.920;2023-08-30T14:47:58;20.00;76.80
29663;DHT22;16578;53.266;7.920;2023-08-30T14:50:24;20.00;76.80
29663;DHT22;16578;53.266;7.920;2023-08-30T14:52:49;20.00;76.90
29663;DHT22;16578;53.266;7.920;2023-08-30T14:55:16;20.00;77.20
29663;DHT22;16578;53.266;7.920;2023-08-30T14:57:42;20.00;77.40
29663;DHT22;16578;53.266;7.920;2023-08-30T15:00:08;20.00;77.40
29663;DHT22;16578;53.266;7.920;2023-08-30T15:02:33;20.00;77.60
29663;DHT22;16578;53.266;7.920;2023-08-30T15:04:59;20.00;77.60
29663;DHT22;16578;53.266;7.920;2023-08-30T15:07:25;20.00;77.60
29663;DHT22;16578;53.266;7.920;2023-08-30T15:09:50;19.90;77.40
29663;DHT22;16578;53.266;7.920;2023-08-30T15:12:16;19.90;77.50
29663;DHT22;16578;53.266;7.920;2023-08-30T15:14:42;19.90;77.60
29663;DHT22;16578;53.266;7.920;2023-08-30T15:17:08;19.90;77.70
29663;DHT22;16578;53.266;7.920;2023-08-30T15:19:34;19.90;77.80
29663;DHT22;16578;53.266;7.920;2023-08-30T15:22:00;19.90;77.90
29663;DHT22;16578;53.266;7.920;2023-08-30T15:24:25;19.80;77.90
29663;DHT22;16578;53.266;7.920;2023-08-30T15:26:51;19.80;78.00
29663;DHT22;16578;53.266;7.920;2023-08-30T15:29:16;19.80;78.20
29663;DHT22;16578;53.266;7.920;2023-08-30T15:31:42;19.80;78.20